createdAt,value
2023-04-09T00:01:46.482Z,30.53
2023-04-09T00:04:29.491Z,32.87
2023-04-09T00:07:23.047Z,31.93
2023-04-09T00:09:52.190Z,31.00
2023-04-09T00:12:21.174Z,30.00
2023-04-09T00:14:49.953Z,30.93
2023-04-09T00:17:20.248Z,32.03
2023-04-09T00:19:49.529Z,32.23
2023-04-09T00:22:20.392Z,33.87
2023-04-09T00:24:49.145Z,33.43
2023-04-09T00:27:17.905Z,30.53
2023-04-09T00:29:47.546Z,31.37
2023-04-09T00:32:16.553Z,30.07
2023-04-09T00:34:46.704Z,32.33
2023-04-09T00:37:15.632Z,31.30
2023-04-09T00:39:44.443Z,33.43
2023-04-09T00:42:13.259Z,32.73
2023-04-09T00:44:42.090Z,30.90
2023-04-09T00:47:11.200Z,30.37
2023-04-09T00:49:39.970Z,31.77
2023-04-09T00:52:10.381Z,32.30
2023-04-09T00:54:39.328Z,32.30
2023-04-09T00:57:08.301Z,28.67
2023-04-09T00:59:37.138Z,31.27
2023-04-09T01:02:05.997Z,28.40
2023-04-09T01:04:35.714Z,29.97
2023-04-09T01:07:17.166Z,30.33
2023-04-09T01:10:00.520Z,31.13
2023-04-09T01:12:44.016Z,28.47
2023-04-09T01:15:19.562Z,30.27
2023-04-09T01:17:54.719Z,30.43
2023-04-09T01:20:34.659Z,31.37
2023-04-09T01:23:19.910Z,31.57
2023-04-09T01:26:06.100Z,30.63
2023-04-09T01:28:50.447Z,32.57
2023-04-09T01:31:22.823Z,31.50
2023-04-09T01:33:53.873Z,31.30
2023-04-09T01:36:26.240Z,31.00
2023-04-09T01:38:58.043Z,31.97
2023-04-09T01:41:28.128Z,33.97
2023-04-09T01:44:01.866Z,31.53
2023-04-09T01:46:32.437Z,29.47
2023-04-09T01:49:02.792Z,29.97
2023-04-09T01:51:33.379Z,29.33
2023-04-09T01:54:02.568Z,29.63
2023-04-09T01:56:42.708Z,27.33
2023-04-09T01:59:13.372Z,29.40
2023-04-09T02:01:48.149Z,29.17
2023-04-09T02:04:24.885Z,30.87
2023-04-09T02:07:02.990Z,32.43
2023-04-09T02:09:35.150Z,28.67
2023-04-09T02:12:08.320Z,31.83
2023-04-09T02:14:42.511Z,30.20
2023-04-09T02:17:11.560Z,27.73
2023-04-09T02:19:42.173Z,29.27
2023-04-09T02:22:12.080Z,34.67
2023-04-09T02:24:41.620Z,33.77
2023-04-09T02:27:10.625Z,30.93
2023-04-09T02:29:42.751Z,35.03
2023-04-09T02:32:11.587Z,31.40
2023-04-09T02:34:40.729Z,34.43
2023-04-09T02:37:09.665Z,31.80
2023-04-09T02:39:38.357Z,33.20
2023-04-09T02:42:07.952Z,35.37
2023-04-09T02:44:36.739Z,33.27
2023-04-09T02:47:07.644Z,35.13
2023-04-09T02:49:38.557Z,32.57
2023-04-09T02:52:07.722Z,35.13
2023-04-09T02:54:36.431Z,37.87
2023-04-09T02:57:05.662Z,35.93
2023-04-09T02:59:35.895Z,33.50
2023-04-09T03:02:06.429Z,36.23
2023-04-09T03:04:35.361Z,34.77
2023-04-09T03:07:04.113Z,35.40
2023-04-09T03:09:32.860Z,36.70
2023-04-09T03:12:02.167Z,33.23
2023-04-09T03:14:30.996Z,33.17
2023-04-09T03:16:59.805Z,34.90
2023-04-09T03:19:30.027Z,33.77
2023-04-09T03:21:59.332Z,31.57
2023-04-09T03:24:33.091Z,31.60
2023-04-09T03:27:05.206Z,33.00
2023-04-09T03:29:35.020Z,33.87
2023-04-09T03:32:04.349Z,31.77
2023-04-09T03:34:35.036Z,32.23
2023-04-09T03:37:04.036Z,31.40
2023-04-09T03:39:36.688Z,31.63
2023-04-09T03:42:06.605Z,33.47
2023-04-09T03:44:45.000Z,29.90
2023-04-09T03:47:18.828Z,30.87
2023-04-09T03:49:49.149Z,31.23
2023-04-09T03:52:23.212Z,30.87
2023-04-09T03:55:04.654Z,30.67
2023-04-09T03:57:36.663Z,33.03
2023-04-09T04:00:10.589Z,32.20
2023-04-09T04:02:59.786Z,33.47
2023-04-09T04:06:01.036Z,29.97
2023-04-09T04:08:32.486Z,32.60
2023-04-09T04:11:06.037Z,34.17
2023-04-09T04:13:35.872Z,32.07
2023-04-09T04:16:10.527Z,33.23
2023-04-09T04:18:41.860Z,33.37
2023-04-09T04:21:19.751Z,30.20
2023-04-09T04:24:03.296Z,33.23
2023-04-09T04:26:39.497Z,33.90
2023-04-09T04:29:09.257Z,35.47
2023-04-09T04:31:54.947Z,35.27
2023-04-09T04:34:27.248Z,33.23
2023-04-09T04:37:06.779Z,31.67
2023-04-09T04:39:36.339Z,32.27
2023-04-09T04:42:25.093Z,34.47
2023-04-09T04:44:54.555Z,33.87
2023-04-09T04:47:38.653Z,31.63
2023-04-09T04:50:10.200Z,31.50
2023-04-09T04:52:59.596Z,35.57
2023-04-09T04:55:33.430Z,32.73
2023-04-09T04:58:03.947Z,30.87
2023-04-09T05:00:42.601Z,31.53
2023-04-09T05:03:15.081Z,32.70
2023-04-09T05:06:05.747Z,33.60
2023-04-09T05:08:43.949Z,32.20
2023-04-09T05:11:15.309Z,33.43
2023-04-09T05:13:45.668Z,38.27
2023-04-09T05:16:19.034Z,39.30
2023-04-09T05:19:02.556Z,35.30
2023-04-09T05:21:35.449Z,36.20
2023-04-09T05:24:08.729Z,34.57
2023-04-09T05:26:39.605Z,35.07
2023-04-09T05:29:09.456Z,34.50
2023-04-09T05:31:40.614Z,36.00
2023-04-09T05:34:17.133Z,33.47
2023-04-09T05:36:51.691Z,32.23
2023-04-09T05:39:25.840Z,33.63
2023-04-09T05:41:56.311Z,32.40
2023-04-09T05:44:33.933Z,34.80
2023-04-09T05:47:25.508Z,34.43
2023-04-09T05:50:53.420Z,37.60
2023-04-09T05:53:25.848Z,34.20
2023-04-09T05:56:24.487Z,34.73
2023-04-09T05:58:58.215Z,33.57
2023-04-09T06:01:27.307Z,32.53
2023-04-09T06:04:25.187Z,35.33
2023-04-09T06:06:55.951Z,33.87
2023-04-09T06:09:25.873Z,35.37
2023-04-09T06:11:57.958Z,34.23
2023-04-09T06:14:27.258Z,38.60
2023-04-09T06:16:56.557Z,37.30
2023-04-09T06:19:36.188Z,43.33
2023-04-09T06:22:05.700Z,33.77
2023-04-09T06:24:35.012Z,35.77
2023-04-09T06:27:13.444Z,34.60
2023-04-09T06:29:43.925Z,35.50
2023-04-09T06:32:13.364Z,34.90
2023-04-09T06:34:42.595Z,34.93
2023-04-09T06:37:11.891Z,33.87
2023-04-09T06:39:58.150Z,34.33
2023-04-09T06:42:37.956Z,32.20
2023-04-09T06:45:18.982Z,35.03
2023-04-09T06:47:52.764Z,34.03
2023-04-09T06:50:25.268Z,33.40
2023-04-09T06:52:59.040Z,35.60
2023-04-09T06:55:32.210Z,35.63
2023-04-09T06:58:04.999Z,37.83
2023-04-09T07:00:35.017Z,33.97
2023-04-09T07:03:08.116Z,38.43
2023-04-09T07:05:37.229Z,35.03
2023-04-09T07:08:06.534Z,37.23
2023-04-09T07:10:35.413Z,35.63
2023-04-09T07:13:06.067Z,33.50
2023-04-09T07:15:34.982Z,36.10
2023-04-09T07:19:21.712Z,33.97
2023-04-09T07:22:19.615Z,36.60
2023-04-09T07:25:07.654Z,33.93
2023-04-09T07:27:40.869Z,32.33
2023-04-09T07:30:12.467Z,34.23
2023-04-09T07:33:08.607Z,36.87
2023-04-09T07:35:51.308Z,33.90
2023-04-09T07:38:24.861Z,33.37
2023-04-09T07:41:15.542Z,32.23
2023-04-09T07:43:44.396Z,32.73
2023-04-09T07:46:21.599Z,32.90
2023-04-09T07:49:16.579Z,35.27
2023-04-09T07:51:45.472Z,32.93
2023-04-09T07:54:14.265Z,37.17
2023-04-09T07:56:43.237Z,30.63
2023-04-09T08:00:09.567Z,31.93
2023-04-09T08:02:48.988Z,33.93
2023-04-09T08:05:18.293Z,35.63
2023-04-09T08:07:47.231Z,32.80
2023-04-09T08:10:22.095Z,32.70
2023-04-09T08:12:51.461Z,35.13
2023-04-09T08:15:20.826Z,33.10
2023-04-09T08:17:58.312Z,33.57
2023-04-09T08:20:30.893Z,32.10
2023-04-09T08:23:00.297Z,32.60
2023-04-09T08:25:30.006Z,32.27
2023-04-09T08:27:58.824Z,32.00
2023-04-09T08:30:28.855Z,30.93
2023-04-09T08:33:07.628Z,32.43
2023-04-09T08:35:40.504Z,30.53
2023-04-09T08:38:09.871Z,32.37
2023-04-09T08:40:39.326Z,32.37
2023-04-09T08:43:12.161Z,31.67
2023-04-09T08:45:42.767Z,29.50
2023-04-09T08:48:17.126Z,30.27
2023-04-09T08:50:48.352Z,28.63
2023-04-09T08:53:22.520Z,28.07
2023-04-09T08:55:53.408Z,29.60
2023-04-09T08:58:28.650Z,28.77
2023-04-09T09:02:14.151Z,31.23
2023-04-09T09:04:51.058Z,32.00
2023-04-09T09:07:19.850Z,32.23
2023-04-09T09:09:54.829Z,31.03
2023-04-09T09:12:39.769Z,30.60
2023-04-09T09:15:33.492Z,31.83
2023-04-09T09:18:04.939Z,29.80
2023-04-09T09:20:38.152Z,29.80
2023-04-09T09:23:18.583Z,28.70
2023-04-09T09:26:14.436Z,31.83
2023-04-09T09:28:58.966Z,30.17
2023-04-09T09:32:24.204Z,32.77
2023-04-09T09:35:03.749Z,30.30
2023-04-09T09:38:05.462Z,29.83
2023-04-09T09:40:46.653Z,27.03
2023-04-09T09:44:42.551Z,28.87
2023-04-09T09:47:19.862Z,28.43
2023-04-09T09:50:32.214Z,26.57
2023-04-09T09:53:07.854Z,27.27
2023-04-09T09:55:54.737Z,25.50
2023-04-09T09:58:33.534Z,25.67
2023-04-09T10:01:12.203Z,27.60
2023-04-09T10:03:44.856Z,26.40
2023-04-09T10:06:15.273Z,26.57
2023-04-09T10:08:52.881Z,26.13
2023-04-09T10:12:07.142Z,24.20
2023-04-09T10:15:05.179Z,25.50
2023-04-09T10:17:34.127Z,27.30
2023-04-09T10:20:27.542Z,26.37
2023-04-09T10:23:53.136Z,28.53
2023-04-09T10:26:27.592Z,25.47
2023-04-09T10:29:52.436Z,27.00
2023-04-09T10:32:23.813Z,25.83
2023-04-09T10:35:00.838Z,25.53
2023-04-09T10:38:01.599Z,23.30
2023-04-09T10:40:31.957Z,26.53
2023-04-09T10:43:56.480Z,24.33
2023-04-09T10:46:36.591Z,26.17
2023-04-09T10:49:38.413Z,27.70
2023-04-09T10:52:12.587Z,27.43
2023-04-09T10:54:46.460Z,26.70
2023-04-09T10:57:22.535Z,22.83
2023-04-09T10:59:54.048Z,23.47
2023-04-09T11:03:24.275Z,24.00
2023-04-09T11:06:02.030Z,23.80
2023-04-09T11:08:33.534Z,23.00
2023-04-09T11:11:03.840Z,25.33
2023-04-09T11:13:35.272Z,25.20
2023-04-09T11:16:07.419Z,24.60
2023-04-09T11:18:37.260Z,25.87
2023-04-09T11:21:06.940Z,28.43
2023-04-09T11:23:37.073Z,27.27
2023-04-09T11:26:11.237Z,27.80
2023-04-09T11:28:44.777Z,26.20
2023-04-09T11:31:14.129Z,27.80
2023-04-09T11:33:47.154Z,27.63
2023-04-09T11:36:16.636Z,25.93
2023-04-09T11:38:45.780Z,27.17
2023-04-09T11:41:15.470Z,28.97
2023-04-09T11:43:46.289Z,28.77
2023-04-09T11:46:15.464Z,29.00
2023-04-09T11:48:44.324Z,28.73
2023-04-09T11:51:13.337Z,26.90
2023-04-09T11:53:43.317Z,25.17
2023-04-09T11:56:12.958Z,23.73
2023-04-09T11:58:49.839Z,23.30
2023-04-09T12:01:19.786Z,24.60
2023-04-09T12:03:55.349Z,26.03
2023-04-09T12:06:25.733Z,24.27
2023-04-09T12:08:55.332Z,22.23
2023-04-09T12:11:31.426Z,22.97
2023-04-09T12:14:05.769Z,26.07
2023-04-09T12:16:37.091Z,25.67
2023-04-09T12:19:08.103Z,24.37
2023-04-09T12:21:51.104Z,26.73
2023-04-09T12:24:22.338Z,25.90
2023-04-09T12:26:51.894Z,25.03
2023-04-09T12:29:22.781Z,26.37
2023-04-09T12:31:51.660Z,27.30
2023-04-09T12:34:20.549Z,29.80
2023-04-09T12:36:49.804Z,28.83
2023-04-09T12:39:18.515Z,30.80
2023-04-09T12:41:47.242Z,30.63
2023-04-09T12:44:16.072Z,32.97
2023-04-09T12:46:46.353Z,29.20
2023-04-09T12:49:15.087Z,29.47
2023-04-09T12:51:43.866Z,29.80
2023-04-09T12:54:12.616Z,31.17
2023-04-09T12:56:41.399Z,31.20
2023-04-09T12:59:10.124Z,31.03
2023-04-09T13:01:40.762Z,32.07
2023-04-09T13:04:13.277Z,30.30
2023-04-09T13:06:42.244Z,31.83
2023-04-09T13:09:10.953Z,33.07
2023-04-09T13:11:39.739Z,34.73
2023-04-09T13:14:13.521Z,31.87
2023-04-09T13:16:42.786Z,42.07
2023-04-09T13:19:13.029Z,33.80
2023-04-09T13:21:41.944Z,29.53
2023-04-09T13:24:11.151Z,32.07
2023-04-09T13:26:39.989Z,34.50
2023-04-09T13:29:09.102Z,30.50
2023-04-09T13:31:38.501Z,32.40
2023-04-09T13:34:07.977Z,28.13
2023-04-09T13:36:38.158Z,28.00
2023-04-09T13:39:07.096Z,32.13
2023-04-09T13:41:36.427Z,30.37
2023-04-09T13:44:05.985Z,34.27
2023-04-09T13:46:36.927Z,30.70
2023-04-09T13:49:05.724Z,30.87
2023-04-09T13:51:35.356Z,29.63
2023-04-09T13:54:06.142Z,25.77
2023-04-09T13:56:35.004Z,25.00
2023-04-09T13:59:03.920Z,26.27
2023-04-09T14:01:32.747Z,29.30
2023-04-09T14:04:01.664Z,22.93
2023-04-09T14:06:32.485Z,24.97
2023-04-09T14:09:08.873Z,23.63
2023-04-09T14:11:40.508Z,23.90
2023-04-09T14:15:13.188Z,21.17
2023-04-09T14:17:45.461Z,22.27
2023-04-09T14:20:14.585Z,22.93
2023-04-09T14:22:43.406Z,19.97
2023-04-09T14:28:44.980Z,21.07
2023-04-09T14:31:14.777Z,19.83
2023-04-09T14:33:57.610Z,18.97
2023-04-09T14:36:27.232Z,19.90
2023-04-09T14:39:35.713Z,19.23
2023-04-09T14:42:09.433Z,20.43
2023-04-09T14:44:39.534Z,20.13
2023-04-09T14:47:08.396Z,19.67
2023-04-09T14:49:37.090Z,19.33
2023-04-09T14:52:07.347Z,17.70
2023-04-09T14:54:37.886Z,18.07
2023-04-09T14:57:25.742Z,16.23
2023-04-09T14:59:56.138Z,15.80
2023-04-09T15:02:25.142Z,18.47
2023-04-09T15:05:04.780Z,15.83
2023-04-09T15:08:25.740Z,18.17
2023-04-09T15:11:25.469Z,18.50
2023-04-09T15:13:54.099Z,18.80
2023-04-09T15:17:37.859Z,21.07
2023-04-09T15:20:08.281Z,20.30
2023-04-09T15:22:36.969Z,19.27
2023-04-09T15:25:06.403Z,18.47
2023-04-09T15:27:36.749Z,18.07
2023-04-09T15:30:32.185Z,18.40
2023-04-09T15:33:02.378Z,17.07
2023-04-09T15:35:45.511Z,16.27
2023-04-09T15:38:17.206Z,18.57
2023-04-09T15:40:46.001Z,15.50
2023-04-09T15:43:14.769Z,13.90
2023-04-09T15:45:43.506Z,13.40
2023-04-09T15:48:13.661Z,12.23
2023-04-09T15:50:42.486Z,13.07
2023-04-09T15:53:11.270Z,14.13
2023-04-09T15:55:40.041Z,17.80
2023-04-09T15:58:09.131Z,14.23
2023-04-09T16:00:37.819Z,14.27
2023-04-09T16:03:06.551Z,19.87
2023-04-09T16:05:36.626Z,13.77
2023-04-09T16:08:05.402Z,14.57
2023-04-09T16:10:34.347Z,24.40
2023-04-09T16:13:03.419Z,20.53
2023-04-09T16:15:32.321Z,21.63
2023-04-09T16:18:03.028Z,14.97
2023-04-09T16:20:31.770Z,14.77
2023-04-09T16:23:01.923Z,14.03
2023-04-09T16:25:30.963Z,16.70
2023-04-09T16:27:59.646Z,14.20
2023-04-09T16:30:30.065Z,17.93
2023-04-09T16:33:00.151Z,13.37
2023-04-09T16:35:28.983Z,14.50
2023-04-09T16:37:57.748Z,13.67
2023-04-09T16:40:28.005Z,19.73
2023-04-09T16:42:56.930Z,16.73
2023-04-09T16:45:25.919Z,17.07
2023-04-09T16:47:56.237Z,17.10
2023-04-09T16:50:27.624Z,19.00
2023-04-09T16:52:56.752Z,21.97
2023-04-09T16:55:28.282Z,18.40
2023-04-09T16:57:58.979Z,16.43
2023-04-09T17:00:29.751Z,20.00
2023-04-09T17:03:01.075Z,18.57
2023-04-09T17:05:33.065Z,28.07
2023-04-09T17:08:02.475Z,25.07
2023-04-09T17:10:36.090Z,22.13
2023-04-09T17:13:06.226Z,23.70
2023-04-09T17:15:36.351Z,19.50
2023-04-09T17:18:05.986Z,20.03
2023-04-09T17:20:35.291Z,17.37
2023-04-09T17:23:04.119Z,17.57
2023-04-09T17:25:34.616Z,18.33
2023-04-09T17:28:07.077Z,20.40
2023-04-09T17:30:36.271Z,27.60
2023-04-09T17:33:05.966Z,23.17
2023-04-09T17:35:35.107Z,20.60
2023-04-09T17:38:04.280Z,23.10
2023-04-09T17:40:36.558Z,22.13
2023-04-09T17:43:07.891Z,20.23
2023-04-09T17:45:36.683Z,19.20
2023-04-09T17:51:58.452Z,21.63
2023-04-09T17:54:27.883Z,19.40
2023-04-09T17:56:58.613Z,21.33
2023-04-09T17:59:34.325Z,19.03
2023-04-09T18:02:07.548Z,22.93
2023-04-09T18:04:38.605Z,21.23
2023-04-09T18:07:11.358Z,22.17
2023-04-09T18:09:43.278Z,24.17
2023-04-09T18:12:15.941Z,26.60
2023-04-09T18:14:46.752Z,28.20
2023-04-09T18:17:16.494Z,29.47
2023-04-09T18:19:49.663Z,34.40
2023-04-09T18:22:24.596Z,34.23
2023-04-09T18:24:56.005Z,33.37
2023-04-09T18:27:26.280Z,32.23
2023-04-09T18:29:59.436Z,28.17
2023-04-09T18:32:28.203Z,27.63
2023-04-09T18:35:01.292Z,25.53
2023-04-09T18:37:45.492Z,22.20
2023-04-09T18:40:42.703Z,22.23
2023-04-09T18:43:14.260Z,25.20
2023-04-09T18:45:45.497Z,22.47
2023-04-09T18:48:15.353Z,23.57
2023-04-09T18:50:54.127Z,25.23
2023-04-09T18:53:30.078Z,23.97
2023-04-09T18:56:04.136Z,24.83
2023-04-09T18:58:42.408Z,25.43
2023-04-09T19:01:25.640Z,27.07
2023-04-09T19:04:03.335Z,28.10
2023-04-09T19:06:48.837Z,24.10
2023-04-09T19:09:18.973Z,24.90
2023-04-09T19:11:48.490Z,26.90
2023-04-09T19:14:19.163Z,23.87
2023-04-09T19:16:48.224Z,25.40
2023-04-09T19:19:19.340Z,24.23
2023-04-09T19:21:48.206Z,26.93
2023-04-09T19:24:18.348Z,25.27
2023-04-09T19:26:47.305Z,26.73
2023-04-09T19:29:17.584Z,25.87
2023-04-09T19:31:46.477Z,26.27
2023-04-09T19:34:16.457Z,25.67
2023-04-09T19:36:45.236Z,28.93
2023-04-09T19:39:14.113Z,30.67
2023-04-09T19:41:43.221Z,25.43
2023-04-09T19:44:18.708Z,35.03
2023-04-09T19:46:50.426Z,29.47
2023-04-09T19:49:21.794Z,29.30
2023-04-09T19:51:52.715Z,31.07
2023-04-09T19:54:21.845Z,31.07
2023-04-09T19:56:50.640Z,27.20
2023-04-09T19:59:21.091Z,27.90
2023-04-09T20:01:55.704Z,27.37
2023-04-09T20:04:26.274Z,25.47
2023-04-09T20:06:57.905Z,26.40
2023-04-09T20:09:32.604Z,25.97
2023-04-09T20:12:07.131Z,27.83
2023-04-09T20:14:39.714Z,26.37
2023-04-09T20:17:11.832Z,24.50
2023-04-09T20:19:43.108Z,33.00
2023-04-09T20:22:13.085Z,22.67
2023-04-09T20:24:43.238Z,28.33
2023-04-09T20:27:13.284Z,26.50
2023-04-09T20:29:47.162Z,22.93
2023-04-09T20:32:19.882Z,21.70
2023-04-09T20:34:50.046Z,22.73
2023-04-09T20:37:19.920Z,20.67
2023-04-09T20:39:59.254Z,21.23
2023-04-09T20:42:28.847Z,20.33
2023-04-09T20:45:00.902Z,22.80
2023-04-09T20:48:40.150Z,23.63
2023-04-09T20:51:32.615Z,20.70
2023-04-09T20:54:05.940Z,24.47
2023-04-09T20:56:36.152Z,21.77
2023-04-09T20:59:17.040Z,23.20
2023-04-09T21:01:48.844Z,22.83
2023-04-09T21:04:18.766Z,22.60
2023-04-09T21:07:05.266Z,22.33
2023-04-09T21:09:38.401Z,23.33
2023-04-09T21:12:14.440Z,20.50
2023-04-09T21:14:48.329Z,19.83
2023-04-09T21:17:19.301Z,20.67
2023-04-09T21:19:52.013Z,21.93
2023-04-09T21:22:26.977Z,23.50
2023-04-09T21:24:58.855Z,22.47
2023-04-09T21:27:29.451Z,22.57
2023-04-09T21:30:00.629Z,22.33
2023-04-09T21:32:31.861Z,22.03
2023-04-09T21:35:04.666Z,21.80
2023-04-09T21:37:56.231Z,22.23
2023-04-09T21:40:31.330Z,20.20
2023-04-09T21:43:14.191Z,20.17
2023-04-09T21:45:44.376Z,22.33
2023-04-09T21:48:20.452Z,21.10
2023-04-09T21:50:57.158Z,21.87
2023-04-09T21:53:42.462Z,23.00
2023-04-09T21:56:15.256Z,19.70
2023-04-09T21:58:47.802Z,22.37
2023-04-09T22:01:29.433Z,21.50
2023-04-09T22:04:08.239Z,21.60
2023-04-09T22:06:38.693Z,23.73
2023-04-09T22:09:10.237Z,21.27
2023-04-09T22:11:43.039Z,22.23
2023-04-09T22:14:13.192Z,21.87
2023-04-09T22:16:44.214Z,21.13
2023-04-09T22:19:14.635Z,20.07
2023-04-09T22:22:00.677Z,20.73
2023-04-09T22:24:36.271Z,22.63
2023-04-09T22:27:09.513Z,20.47
2023-04-09T22:29:40.518Z,19.27
2023-04-09T22:32:16.524Z,20.87
2023-04-09T22:34:58.348Z,21.13
2023-04-09T22:37:29.357Z,20.07
2023-04-09T22:40:05.021Z,20.10
2023-04-09T22:42:35.661Z,19.73
2023-04-09T22:45:26.303Z,23.80
2023-04-09T22:47:59.784Z,21.07
2023-04-09T22:50:29.732Z,21.70
2023-04-09T22:53:04.704Z,23.40
2023-04-09T22:55:41.218Z,20.20
2023-04-09T22:58:17.654Z,20.77
2023-04-09T23:00:51.428Z,21.27
2023-04-09T23:03:21.527Z,22.23
2023-04-09T23:05:51.456Z,20.77
2023-04-09T23:08:27.289Z,21.17
2023-04-09T23:10:58.520Z,21.13
2023-04-09T23:13:27.573Z,24.20
2023-04-09T23:15:56.459Z,23.87
2023-04-09T23:18:25.495Z,23.17
2023-04-09T23:20:54.373Z,22.07
2023-04-09T23:23:23.342Z,22.30
2023-04-09T23:25:52.577Z,22.80
2023-04-09T23:28:22.928Z,23.43
2023-04-09T23:30:51.934Z,22.90
2023-04-09T23:33:21.815Z,23.73
2023-04-09T23:35:50.867Z,24.30
2023-04-09T23:38:19.991Z,22.23
2023-04-09T23:40:50.776Z,23.30
2023-04-09T23:43:19.644Z,21.70
2023-04-09T23:45:50.734Z,23.43
2023-04-09T23:48:19.647Z,23.93
2023-04-09T23:50:48.444Z,25.03
2023-04-09T23:53:17.281Z,25.17
2023-04-09T23:55:47.869Z,22.77
2023-04-09T23:58:17.746Z,28.10
